sensor_id;sensor_type;location;lat;lon;timestamp;P1;durP1;ratioP1;P2;durP2;ratioP2
14797;SDS011;7490;63.708;20.368;2023-08-30T00:00:11;0.70;;;0.70;;
14797;SDS011;7490;63.708;20.368;2023-08-30T00:02:37;2.00;;;0.60;;
14797;SDS011;7490;63.708;20.368;2023-08-30T00:05:03;3.10;;;0.70;;
14797;SDS011;7490;63.708;20.368;2023-08-30T00:07:29;1.93;;;0.80;;
14797;SDS011;7490;63.708;20.368;2023-08-30T00:09:56;0.70;;;0.70;;
14797;SDS011;7490;63.708;20.368;2023-08-30T00:12:23;0.60;;;0.60;;
14797;SDS011;7490;63.708;20.368;2023-08-30T00:14:49;1.33;;;0.70;;
14797;SDS011;7490;63.708;20.368;2023-08-30T00:17:15;0.70;;;0.70;;
14797;SDS011;7490;63.708;20.368;2023-08-30T00:19:41;0.93;;;0.80;;
14797;SDS011;7490;63.708;20.368;2023-08-30T00:22:07;1.77;;;0.90;;
14797;SDS011;7490;63.708;20.368;2023-08-30T00:24:32;3.27;;;0.80;;
14797;SDS011;7490;63.708;20.368;2023-08-30T00:26:59;3.00;;;0.90;;
14797;SDS011;7490;63.708;20.368;2023-08-30T00:29:25;0.90;;;0.90;;
14797;SDS011;7490;63.708;20.368;2023-08-30T00:31:51;1.60;;;0.90;;
14797;SDS011;7490;63.708;20.368;2023-08-30T00:34:16;2.47;;;1.10;;
14797;SDS011;7490;63.708;20.368;2023-08-30T00:36:42;3.90;;;1.10;;
14797;SDS011;7490;63.708;20.368;2023-08-30T00:39:08;1.73;;;1.20;;
14797;SDS011;7490;63.708;20.368;2023-08-30T00:41:33;2.83;;;1.10;;
14797;SDS011;7490;63.708;20.368;2023-08-30T00:44:00;4.23;;;1.00;;
14797;SDS011;7490;63.708;20.368;2023-08-30T00:46:25;2.47;;;1.03;;
14797;SDS011;7490;63.708;20.368;2023-08-30T00:48:52;1.50;;;1.00;;
14797;SDS011;7490;63.708;20.368;2023-08-30T00:51:18;1.13;;;0.67;;
14797;SDS011;7490;63.708;20.368;2023-08-30T00:53:44;0.90;;;0.90;;
14797;SDS011;7490;63.708;20.368;2023-08-30T00:56:10;2.43;;;1.00;;
14797;SDS011;7490;63.708;20.368;2023-08-30T00:58:36;3.77;;;0.80;;
14797;SDS011;7490;63.708;20.368;2023-08-30T01:01:03;2.10;;;0.80;;
14797;SDS011;7490;63.708;20.368;2023-08-30T01:03:33;0.87;;;0.70;;
14797;SDS011;7490;63.708;20.368;2023-08-30T01:06:02;2.37;;;0.80;;
14797;SDS011;7490;63.708;20.368;2023-08-30T01:08:28;1.33;;;0.77;;
14797;SDS011;7490;63.708;20.368;2023-08-30T01:11:03;0.83;;;0.70;;
14797;SDS011;7490;63.708;20.368;2023-08-30T01:13:45;0.97;;;0.73;;
14797;SDS011;7490;63.708;20.368;2023-08-30T01:16:26;1.30;;;0.80;;
14797;SDS011;7490;63.708;20.368;2023-08-30T01:18:54;1.60;;;0.80;;
14797;SDS011;7490;63.708;20.368;2023-08-30T01:21:27;1.07;;;0.83;;
14797;SDS011;7490;63.708;20.368;2023-08-30T01:24:12;1.20;;;0.97;;
14797;SDS011;7490;63.708;20.368;2023-08-30T01:29:30;1.07;;;0.80;;
14797;SDS011;7490;63.708;20.368;2023-08-30T01:31:57;3.03;;;0.90;;
14797;SDS011;7490;63.708;20.368;2023-08-30T01:34:23;1.43;;;0.80;;
14797;SDS011;7490;63.708;20.368;2023-08-30T01:36:50;1.90;;;0.93;;
14797;SDS011;7490;63.708;20.368;2023-08-30T01:39:16;0.90;;;0.90;;
14797;SDS011;7490;63.708;20.368;2023-08-30T01:41:42;0.70;;;0.70;;
14797;SDS011;7490;63.708;20.368;2023-08-30T01:44:09;1.63;;;0.80;;
14797;SDS011;7490;63.708;20.368;2023-08-30T01:46:36;1.17;;;0.73;;
14797;SDS011;7490;63.708;20.368;2023-08-30T01:49:02;2.20;;;0.90;;
14797;SDS011;7490;63.708;20.368;2023-08-30T01:51:29;2.30;;;0.93;;
14797;SDS011;7490;63.708;20.368;2023-08-30T01:53:55;2.77;;;0.77;;
14797;SDS011;7490;63.708;20.368;2023-08-30T01:56:22;0.80;;;0.80;;
14797;SDS011;7490;63.708;20.368;2023-08-30T01:58:48;0.90;;;0.90;;
14797;SDS011;7490;63.708;20.368;2023-08-30T02:01:14;0.97;;;0.97;;
14797;SDS011;7490;63.708;20.368;2023-08-30T02:03:43;2.37;;;0.90;;
14797;SDS011;7490;63.708;20.368;2023-08-30T02:06:13;2.90;;;1.03;;
14797;SDS011;7490;63.708;20.368;2023-08-30T02:09:04;0.80;;;0.80;;
14797;SDS011;7490;63.708;20.368;2023-08-30T02:11:34;2.10;;;1.00;;
14797;SDS011;7490;63.708;20.368;2023-08-30T02:14:01;2.63;;;0.90;;
14797;SDS011;7490;63.708;20.368;2023-08-30T02:16:31;3.23;;;1.17;;
14797;SDS011;7490;63.708;20.368;2023-08-30T02:18:58;3.63;;;0.90;;
14797;SDS011;7490;63.708;20.368;2023-08-30T02:21:24;1.10;;;1.00;;
14797;SDS011;7490;63.708;20.368;2023-08-30T02:23:52;1.33;;;0.87;;
14797;SDS011;7490;63.708;20.368;2023-08-30T02:26:19;3.73;;;0.97;;
14797;SDS011;7490;63.708;20.368;2023-08-30T02:28:45;1.20;;;0.90;;
14797;SDS011;7490;63.708;20.368;2023-08-30T02:31:11;2.27;;;0.90;;
14797;SDS011;7490;63.708;20.368;2023-08-30T02:33:36;1.17;;;0.90;;
14797;SDS011;7490;63.708;20.368;2023-08-30T02:36:05;1.33;;;0.90;;
14797;SDS011;7490;63.708;20.368;2023-08-30T02:38:31;2.13;;;1.00;;
14797;SDS011;7490;63.708;20.368;2023-08-30T02:40:56;1.07;;;1.00;;
14797;SDS011;7490;63.708;20.368;2023-08-30T02:43:22;1.30;;;1.00;;
14797;SDS011;7490;63.708;20.368;2023-08-30T02:45:48;3.00;;;1.00;;
14797;SDS011;7490;63.708;20.368;2023-08-30T02:48:14;2.70;;;1.20;;
14797;SDS011;7490;63.708;20.368;2023-08-30T02:50:40;1.63;;;1.00;;
14797;SDS011;7490;63.708;20.368;2023-08-30T02:53:06;3.33;;;1.07;;
14797;SDS011;7490;63.708;20.368;2023-08-30T02:55:35;2.97;;;1.10;;
14797;SDS011;7490;63.708;20.368;2023-08-30T02:58:00;2.63;;;1.20;;
14797;SDS011;7490;63.708;20.368;2023-08-30T03:00:26;4.70;;;1.87;;
14797;SDS011;7490;63.708;20.368;2023-08-30T03:02:52;1.70;;;1.60;;
14797;SDS011;7490;63.708;20.368;2023-08-30T03:05:18;3.07;;;1.10;;
14797;SDS011;7490;63.708;20.368;2023-08-30T03:07:44;1.50;;;1.40;;
14797;SDS011;7490;63.708;20.368;2023-08-30T03:10:11;4.00;;;1.27;;
14797;SDS011;7490;63.708;20.368;2023-08-30T03:12:37;1.87;;;1.30;;
14797;SDS011;7490;63.708;20.368;2023-08-30T03:15:03;1.13;;;1.00;;
14797;SDS011;7490;63.708;20.368;2023-08-30T03:17:30;1.77;;;1.20;;
14797;SDS011;7490;63.708;20.368;2023-08-30T03:19:55;2.37;;;1.10;;
14797;SDS011;7490;63.708;20.368;2023-08-30T03:22:21;1.57;;;0.90;;
14797;SDS011;7490;63.708;20.368;2023-08-30T03:24:47;2.43;;;1.60;;
14797;SDS011;7490;63.708;20.368;2023-08-30T03:27:14;1.83;;;1.20;;
14797;SDS011;7490;63.708;20.368;2023-08-30T03:29:40;1.43;;;1.30;;
14797;SDS011;7490;63.708;20.368;2023-08-30T03:32:06;2.87;;;1.60;;
14797;SDS011;7490;63.708;20.368;2023-08-30T03:34:31;3.13;;;1.37;;
14797;SDS011;7490;63.708;20.368;2023-08-30T03:36:57;1.90;;;1.30;;
14797;SDS011;7490;63.708;20.368;2023-08-30T03:39:23;1.57;;;1.10;;
14797;SDS011;7490;63.708;20.368;2023-08-30T03:41:49;2.03;;;1.10;;
14797;SDS011;7490;63.708;20.368;2023-08-30T03:44:15;3.00;;;1.40;;
14797;SDS011;7490;63.708;20.368;2023-08-30T03:46:41;2.00;;;1.30;;
14797;SDS011;7490;63.708;20.368;2023-08-30T03:49:07;2.23;;;1.20;;
14797;SDS011;7490;63.708;20.368;2023-08-30T03:51:32;2.57;;;1.10;;
14797;SDS011;7490;63.708;20.368;2023-08-30T03:53:58;3.70;;;1.30;;
14797;SDS011;7490;63.708;20.368;2023-08-30T03:56:25;1.17;;;1.10;;
14797;SDS011;7490;63.708;20.368;2023-08-30T03:58:50;1.77;;;1.13;;
14797;SDS011;7490;63.708;20.368;2023-08-30T04:01:16;3.17;;;1.30;;
14797;SDS011;7490;63.708;20.368;2023-08-30T04:03:42;1.43;;;1.20;;
14797;SDS011;7490;63.708;20.368;2023-08-30T04:06:07;1.90;;;1.20;;
14797;SDS011;7490;63.708;20.368;2023-08-30T04:08:33;1.90;;;1.23;;
14797;SDS011;7490;63.708;20.368;2023-08-30T04:10:58;1.80;;;1.20;;
14797;SDS011;7490;63.708;20.368;2023-08-30T04:13:24;2.43;;;1.30;;
14797;SDS011;7490;63.708;20.368;2023-08-30T04:15:50;3.83;;;1.33;;
14797;SDS011;7490;63.708;20.368;2023-08-30T04:18:16;4.17;;;1.37;;
14797;SDS011;7490;63.708;20.368;2023-08-30T04:20:45;2.73;;;1.27;;
14797;SDS011;7490;63.708;20.368;2023-08-30T04:23:12;2.27;;;1.33;;
14797;SDS011;7490;63.708;20.368;2023-08-30T04:25:37;2.60;;;1.67;;
14797;SDS011;7490;63.708;20.368;2023-08-30T04:28:03;5.13;;;1.40;;
14797;SDS011;7490;63.708;20.368;2023-08-30T04:30:29;3.93;;;1.20;;
14797;SDS011;7490;63.708;20.368;2023-08-30T04:32:55;4.00;;;1.60;;
14797;SDS011;7490;63.708;20.368;2023-08-30T04:35:21;2.67;;;1.30;;
14797;SDS011;7490;63.708;20.368;2023-08-30T04:37:46;1.40;;;1.30;;
14797;SDS011;7490;63.708;20.368;2023-08-30T04:40:13;3.30;;;1.23;;
14797;SDS011;7490;63.708;20.368;2023-08-30T04:42:39;3.07;;;1.10;;
14797;SDS011;7490;63.708;20.368;2023-08-30T04:45:05;2.73;;;1.17;;
14797;SDS011;7490;63.708;20.368;2023-08-30T04:47:32;3.33;;;1.07;;
14797;SDS011;7490;63.708;20.368;2023-08-30T04:49:58;3.40;;;1.13;;
14797;SDS011;7490;63.708;20.368;2023-08-30T04:52:23;3.43;;;1.20;;
14797;SDS011;7490;63.708;20.368;2023-08-30T04:54:49;1.33;;;1.20;;
14797;SDS011;7490;63.708;20.368;2023-08-30T04:57:15;3.17;;;1.30;;
14797;SDS011;7490;63.708;20.368;2023-08-30T04:59:42;2.73;;;1.07;;
14797;SDS011;7490;63.708;20.368;2023-08-30T05:02:08;1.10;;;1.00;;
14797;SDS011;7490;63.708;20.368;2023-08-30T05:04:34;1.70;;;0.83;;
14797;SDS011;7490;63.708;20.368;2023-08-30T05:07:00;1.07;;;0.80;;
14797;SDS011;7490;63.708;20.368;2023-08-30T05:09:25;1.60;;;0.93;;
14797;SDS011;7490;63.708;20.368;2023-08-30T05:11:51;3.33;;;0.90;;
14797;SDS011;7490;63.708;20.368;2023-08-30T05:14:18;1.40;;;0.87;;
14797;SDS011;7490;63.708;20.368;2023-08-30T05:16:44;5.27;;;0.60;;
14797;SDS011;7490;63.708;20.368;2023-08-30T05:19:10;4.33;;;0.83;;
14797;SDS011;7490;63.708;20.368;2023-08-30T05:21:36;0.93;;;0.70;;
14797;SDS011;7490;63.708;20.368;2023-08-30T05:24:01;1.07;;;0.77;;
14797;SDS011;7490;63.708;20.368;2023-08-30T05:26:27;1.33;;;0.70;;
14797;SDS011;7490;63.708;20.368;2023-08-30T05:28:53;2.10;;;0.90;;
14797;SDS011;7490;63.708;20.368;2023-08-30T05:31:19;2.93;;;0.87;;
14797;SDS011;7490;63.708;20.368;2023-08-30T05:33:44;2.20;;;0.80;;
14797;SDS011;7490;63.708;20.368;2023-08-30T05:36:10;2.67;;;0.80;;
14797;SDS011;7490;63.708;20.368;2023-08-30T05:38:36;1.33;;;0.77;;
14797;SDS011;7490;63.708;20.368;2023-08-30T05:41:01;3.27;;;0.70;;
14797;SDS011;7490;63.708;20.368;2023-08-30T05:43:27;3.37;;;1.00;;
14797;SDS011;7490;63.708;20.368;2023-08-30T05:45:53;1.20;;;0.77;;
14797;SDS011;7490;63.708;20.368;2023-08-30T05:48:18;0.97;;;0.80;;
14797;SDS011;7490;63.708;20.368;2023-08-30T05:50:44;4.43;;;0.90;;
14797;SDS011;7490;63.708;20.368;2023-08-30T05:53:10;3.03;;;0.80;;
14797;SDS011;7490;63.708;20.368;2023-08-30T05:55:36;5.60;;;1.03;;
14797;SDS011;7490;63.708;20.368;2023-08-30T05:58:02;1.53;;;0.70;;
14797;SDS011;7490;63.708;20.368;2023-08-30T06:00:28;5.03;;;0.70;;
14797;SDS011;7490;63.708;20.368;2023-08-30T06:02:54;1.70;;;0.83;;
14797;SDS011;7490;63.708;20.368;2023-08-30T06:05:20;0.77;;;0.70;;
14797;SDS011;7490;63.708;20.368;2023-08-30T06:07:45;2.90;;;0.80;;
14797;SDS011;7490;63.708;20.368;2023-08-30T06:10:12;4.87;;;1.00;;
14797;SDS011;7490;63.708;20.368;2023-08-30T06:12:37;5.00;;;0.70;;
14797;SDS011;7490;63.708;20.368;2023-08-30T06:15:03;3.43;;;0.90;;
14797;SDS011;7490;63.708;20.368;2023-08-30T06:17:29;0.83;;;0.83;;
14797;SDS011;7490;63.708;20.368;2023-08-30T06:19:55;0.90;;;0.70;;
14797;SDS011;7490;63.708;20.368;2023-08-30T06:22:21;1.33;;;1.00;;
14797;SDS011;7490;63.708;20.368;2023-08-30T06:24:47;0.80;;;0.80;;
14797;SDS011;7490;63.708;20.368;2023-08-30T06:27:12;0.97;;;0.90;;
14797;SDS011;7490;63.708;20.368;2023-08-30T06:29:38;2.30;;;0.90;;
14797;SDS011;7490;63.708;20.368;2023-08-30T06:32:04;2.53;;;0.90;;
14797;SDS011;7490;63.708;20.368;2023-08-30T06:34:30;2.27;;;0.90;;
14797;SDS011;7490;63.708;20.368;2023-08-30T06:36:55;1.73;;;0.70;;
14797;SDS011;7490;63.708;20.368;2023-08-30T06:39:21;2.43;;;0.80;;
14797;SDS011;7490;63.708;20.368;2023-08-30T06:41:47;1.23;;;0.80;;
14797;SDS011;7490;63.708;20.368;2023-08-30T06:44:13;1.33;;;1.10;;
14797;SDS011;7490;63.708;20.368;2023-08-30T06:46:38;1.53;;;1.03;;
14797;SDS011;7490;63.708;20.368;2023-08-30T06:49:05;4.37;;;0.97;;
14797;SDS011;7490;63.708;20.368;2023-08-30T06:51:30;1.00;;;0.70;;
14797;SDS011;7490;63.708;20.368;2023-08-30T06:53:56;4.40;;;1.07;;
14797;SDS011;7490;63.708;20.368;2023-08-30T06:56:25;1.10;;;1.00;;
14797;SDS011;7490;63.708;20.368;2023-08-30T06:58:54;2.13;;;0.80;;
14797;SDS011;7490;63.708;20.368;2023-08-30T07:01:20;8.93;;;1.17;;
14797;SDS011;7490;63.708;20.368;2023-08-30T07:03:45;0.80;;;0.80;;
14797;SDS011;7490;63.708;20.368;2023-08-30T07:06:11;3.33;;;0.90;;
14797;SDS011;7490;63.708;20.368;2023-08-30T07:08:37;3.57;;;0.80;;
14797;SDS011;7490;63.708;20.368;2023-08-30T07:11:03;0.70;;;0.70;;
14797;SDS011;7490;63.708;20.368;2023-08-30T07:13:28;2.20;;;0.70;;
14797;SDS011;7490;63.708;20.368;2023-08-30T07:15:54;3.87;;;0.70;;
14797;SDS011;7490;63.708;20.368;2023-08-30T07:18:20;0.87;;;0.70;;
14797;SDS011;7490;63.708;20.368;2023-08-30T07:20:45;1.47;;;0.80;;
14797;SDS011;7490;63.708;20.368;2023-08-30T07:23:11;1.47;;;0.77;;
14797;SDS011;7490;63.708;20.368;2023-08-30T07:25:37;1.53;;;0.80;;
14797;SDS011;7490;63.708;20.368;2023-08-30T07:28:03;1.90;;;0.90;;
14797;SDS011;7490;63.708;20.368;2023-08-30T07:30:30;0.97;;;0.80;;
14797;SDS011;7490;63.708;20.368;2023-08-30T07:32:56;0.83;;;0.77;;
14797;SDS011;7490;63.708;20.368;2023-08-30T07:35:21;1.13;;;0.73;;
14797;SDS011;7490;63.708;20.368;2023-08-30T07:37:47;4.33;;;1.00;;
14797;SDS011;7490;63.708;20.368;2023-08-30T07:40:13;2.40;;;0.80;;
14797;SDS011;7490;63.708;20.368;2023-08-30T07:42:38;5.90;;;1.10;;
14797;SDS011;7490;63.708;20.368;2023-08-30T07:45:04;1.33;;;0.70;;
14797;SDS011;7490;63.708;20.368;2023-08-30T07:47:30;1.87;;;0.63;;
14797;SDS011;7490;63.708;20.368;2023-08-30T07:49:56;1.47;;;0.57;;
14797;SDS011;7490;63.708;20.368;2023-08-30T07:52:21;0.60;;;0.60;;
14797;SDS011;7490;63.708;20.368;2023-08-30T07:54:47;1.50;;;0.80;;
14797;SDS011;7490;63.708;20.368;2023-08-30T07:57:13;2.97;;;0.70;;
14797;SDS011;7490;63.708;20.368;2023-08-30T07:59:38;0.77;;;0.50;;
14797;SDS011;7490;63.708;20.368;2023-08-30T08:02:04;3.17;;;0.67;;
14797;SDS011;7490;63.708;20.368;2023-08-30T08:04:34;1.73;;;0.60;;
14797;SDS011;7490;63.708;20.368;2023-08-30T08:07:00;0.50;;;0.50;;
14797;SDS011;7490;63.708;20.368;2023-08-30T08:09:26;0.77;;;0.50;;
14797;SDS011;7490;63.708;20.368;2023-08-30T08:11:53;1.50;;;0.50;;
14797;SDS011;7490;63.708;20.368;2023-08-30T08:14:18;0.97;;;0.70;;
14797;SDS011;7490;63.708;20.368;2023-08-30T08:16:44;1.70;;;0.40;;
14797;SDS011;7490;63.708;20.368;2023-08-30T08:19:10;0.70;;;0.40;;
14797;SDS011;7490;63.708;20.368;2023-08-30T08:21:37;0.80;;;0.30;;
14797;SDS011;7490;63.708;20.368;2023-08-30T08:24:03;0.47;;;0.47;;
14797;SDS011;7490;63.708;20.368;2023-08-30T08:26:29;1.03;;;0.40;;
14797;SDS011;7490;63.708;20.368;2023-08-30T08:28:54;0.33;;;0.33;;
14797;SDS011;7490;63.708;20.368;2023-08-30T08:31:20;0.83;;;0.30;;
14797;SDS011;7490;63.708;20.368;2023-08-30T08:33:49;0.87;;;0.40;;
14797;SDS011;7490;63.708;20.368;2023-08-30T08:36:32;0.30;;;0.30;;
14797;SDS011;7490;63.708;20.368;2023-08-30T08:38:58;1.50;;;0.50;;
14797;SDS011;7490;63.708;20.368;2023-08-30T08:41:23;0.60;;;0.50;;
14797;SDS011;7490;63.708;20.368;2023-08-30T08:43:56;2.27;;;0.60;;
14797;SDS011;7490;63.708;20.368;2023-08-30T08:46:24;0.60;;;0.50;;
14797;SDS011;7490;63.708;20.368;2023-08-30T08:48:51;1.13;;;0.40;;
14797;SDS011;7490;63.708;20.368;2023-08-30T08:51:19;0.73;;;0.40;;
14797;SDS011;7490;63.708;20.368;2023-08-30T08:53:45;0.53;;;0.53;;
14797;SDS011;7490;63.708;20.368;2023-08-30T08:56:11;1.17;;;0.60;;
14797;SDS011;7490;63.708;20.368;2023-08-30T08:58:38;1.80;;;0.60;;
14797;SDS011;7490;63.708;20.368;2023-08-30T09:01:04;0.60;;;0.60;;
14797;SDS011;7490;63.708;20.368;2023-08-30T09:03:32;0.97;;;0.60;;
14797;SDS011;7490;63.708;20.368;2023-08-30T09:06:00;0.87;;;0.60;;
14797;SDS011;7490;63.708;20.368;2023-08-30T09:08:27;0.70;;;0.60;;
14797;SDS011;7490;63.708;20.368;2023-08-30T09:10:53;1.23;;;0.60;;
14797;SDS011;7490;63.708;20.368;2023-08-30T09:13:19;0.73;;;0.60;;
14797;SDS011;7490;63.708;20.368;2023-08-30T09:15:47;1.60;;;0.73;;
14797;SDS011;7490;63.708;20.368;2023-08-30T09:18:17;0.70;;;0.70;;
14797;SDS011;7490;63.708;20.368;2023-08-30T09:20:43;0.70;;;0.70;;
14797;SDS011;7490;63.708;20.368;2023-08-30T09:23:18;1.27;;;0.70;;
14797;SDS011;7490;63.708;20.368;2023-08-30T09:25:45;2.07;;;0.80;;
14797;SDS011;7490;63.708;20.368;2023-08-30T09:28:11;2.50;;;0.80;;
14797;SDS011;7490;63.708;20.368;2023-08-30T09:30:38;0.80;;;0.80;;
14797;SDS011;7490;63.708;20.368;2023-08-30T09:33:04;2.20;;;1.00;;
14797;SDS011;7490;63.708;20.368;2023-08-30T09:35:31;1.60;;;0.80;;
14797;SDS011;7490;63.708;20.368;2023-08-30T09:37:57;1.53;;;0.80;;
14797;SDS011;7490;63.708;20.368;2023-08-30T09:40:22;0.90;;;0.90;;
14797;SDS011;7490;63.708;20.368;2023-08-30T09:42:48;1.60;;;1.00;;
14797;SDS011;7490;63.708;20.368;2023-08-30T09:45:17;2.47;;;1.10;;
14797;SDS011;7490;63.708;20.368;2023-08-30T09:47:52;2.43;;;1.33;;
14797;SDS011;7490;63.708;20.368;2023-08-30T09:50:20;1.97;;;1.50;;
14797;SDS011;7490;63.708;20.368;2023-08-30T09:52:47;1.83;;;1.30;;
14797;SDS011;7490;63.708;20.368;2023-08-30T09:55:14;2.23;;;1.70;;
14797;SDS011;7490;63.708;20.368;2023-08-30T09:57:41;1.50;;;1.40;;
14797;SDS011;7490;63.708;20.368;2023-08-30T10:00:08;1.40;;;1.30;;
14797;SDS011;7490;63.708;20.368;2023-08-30T10:02:37;5.00;;;1.60;;
14797;SDS011;7490;63.708;20.368;2023-08-30T10:05:06;2.73;;;1.70;;
14797;SDS011;7490;63.708;20.368;2023-08-30T10:07:34;1.77;;;1.50;;
14797;SDS011;7490;63.708;20.368;2023-08-30T10:10:02;2.30;;;1.67;;
14797;SDS011;7490;63.708;20.368;2023-08-30T10:12:30;2.20;;;1.40;;
14797;SDS011;7490;63.708;20.368;2023-08-30T10:14:57;3.17;;;1.50;;
14797;SDS011;7490;63.708;20.368;2023-08-30T10:17:23;2.30;;;1.73;;
14797;SDS011;7490;63.708;20.368;2023-08-30T10:19:52;1.50;;;1.40;;
14797;SDS011;7490;63.708;20.368;2023-08-30T10:22:20;2.93;;;1.47;;
14797;SDS011;7490;63.708;20.368;2023-08-30T10:24:58;2.57;;;1.97;;
14797;SDS011;7490;63.708;20.368;2023-08-30T10:27:26;1.87;;;1.73;;
14797;SDS011;7490;63.708;20.368;2023-08-30T10:29:53;1.73;;;1.60;;
14797;SDS011;7490;63.708;20.368;2023-08-30T10:32:19;2.37;;;1.90;;
14797;SDS011;7490;63.708;20.368;2023-08-30T10:34:47;1.70;;;1.60;;
14797;SDS011;7490;63.708;20.368;2023-08-30T10:37:14;2.50;;;1.70;;
14797;SDS011;7490;63.708;20.368;2023-08-30T10:39:41;2.17;;;1.97;;
14797;SDS011;7490;63.708;20.368;2023-08-30T10:42:08;2.77;;;2.20;;
14797;SDS011;7490;63.708;20.368;2023-08-30T10:44:35;3.20;;;2.13;;
14797;SDS011;7490;63.708;20.368;2023-08-30T10:47:24;2.10;;;1.90;;
14797;SDS011;7490;63.708;20.368;2023-08-30T10:49:54;3.67;;;2.30;;
14797;SDS011;7490;63.708;20.368;2023-08-30T10:52:21;2.17;;;2.07;;
14797;SDS011;7490;63.708;20.368;2023-08-30T10:54:48;2.70;;;2.27;;
14797;SDS011;7490;63.708;20.368;2023-08-30T10:57:18;2.27;;;2.17;;
14797;SDS011;7490;63.708;20.368;2023-08-30T11:02:50;2.47;;;1.97;;
14797;SDS011;7490;63.708;20.368;2023-08-30T11:05:17;2.20;;;2.00;;
14797;SDS011;7490;63.708;20.368;2023-08-30T11:07:44;3.23;;;2.00;;
14797;SDS011;7490;63.708;20.368;2023-08-30T11:10:10;2.40;;;2.20;;
14797;SDS011;7490;63.708;20.368;2023-08-30T11:12:36;2.20;;;2.00;;
14797;SDS011;7490;63.708;20.368;2023-08-30T11:15:04;2.37;;;2.17;;
14797;SDS011;7490;63.708;20.368;2023-08-30T11:17:33;3.67;;;2.23;;
14797;SDS011;7490;63.708;20.368;2023-08-30T11:20:09;3.27;;;2.30;;
14797;SDS011;7490;63.708;20.368;2023-08-30T11:22:46;2.33;;;2.13;;
14797;SDS011;7490;63.708;20.368;2023-08-30T11:25:13;3.43;;;2.20;;
14797;SDS011;7490;63.708;20.368;2023-08-30T11:27:40;2.40;;;2.20;;
14797;SDS011;7490;63.708;20.368;2023-08-30T11:30:06;2.40;;;2.20;;
14797;SDS011;7490;63.708;20.368;2023-08-30T11:32:37;4.37;;;2.33;;
14797;SDS011;7490;63.708;20.368;2023-08-30T11:35:04;2.40;;;2.20;;
14797;SDS011;7490;63.708;20.368;2023-08-30T11:37:31;4.33;;;2.23;;
14797;SDS011;7490;63.708;20.368;2023-08-30T11:39:57;3.33;;;2.30;;
14797;SDS011;7490;63.708;20.368;2023-08-30T11:42:23;4.43;;;1.90;;
14797;SDS011;7490;63.708;20.368;2023-08-30T11:44:50;4.30;;;2.60;;
14797;SDS011;7490;63.708;20.368;2023-08-30T11:47:22;3.40;;;2.40;;
14797;SDS011;7490;63.708;20.368;2023-08-30T11:49:49;2.50;;;2.30;;
14797;SDS011;7490;63.708;20.368;2023-08-30T11:52:17;3.30;;;2.30;;
14797;SDS011;7490;63.708;20.368;2023-08-30T11:54:43;2.50;;;2.30;;
14797;SDS011;7490;63.708;20.368;2023-08-30T11:57:09;2.60;;;2.40;;
14797;SDS011;7490;63.708;20.368;2023-08-30T11:59:35;2.70;;;2.40;;
14797;SDS011;7490;63.708;20.368;2023-08-30T12:02:02;2.50;;;2.30;;
14797;SDS011;7490;63.708;20.368;2023-08-30T12:04:28;2.43;;;2.23;;
14797;SDS011;7490;63.708;20.368;2023-08-30T12:06:54;2.60;;;2.13;;
14797;SDS011;7490;63.708;20.368;2023-08-30T12:09:20;2.13;;;2.03;;
14797;SDS011;7490;63.708;20.368;2023-08-30T12:11:47;2.27;;;2.17;;
14797;SDS011;7490;63.708;20.368;2023-08-30T12:14:16;2.43;;;2.20;;
14797;SDS011;7490;63.708;20.368;2023-08-30T12:16:42;2.30;;;2.10;;
14797;SDS011;7490;63.708;20.368;2023-08-30T12:19:11;2.93;;;2.30;;
14797;SDS011;7490;63.708;20.368;2023-08-30T12:21:42;2.60;;;2.40;;
14797;SDS011;7490;63.708;20.368;2023-08-30T12:24:09;3.47;;;2.30;;
14797;SDS011;7490;63.708;20.368;2023-08-30T12:26:35;2.43;;;2.23;;
14797;SDS011;7490;63.708;20.368;2023-08-30T12:29:03;3.90;;;2.10;;
14797;SDS011;7490;63.708;20.368;2023-08-30T12:31:32;2.53;;;2.37;;
14797;SDS011;7490;63.708;20.368;2023-08-30T12:33:58;2.73;;;2.30;;
14797;SDS011;7490;63.708;20.368;2023-08-30T12:36:24;2.40;;;2.20;;
14797;SDS011;7490;63.708;20.368;2023-08-30T12:38:50;2.50;;;2.27;;
14797;SDS011;7490;63.708;20.368;2023-08-30T12:41:16;2.30;;;2.10;;
14797;SDS011;7490;63.708;20.368;2023-08-30T12:43:41;2.40;;;2.20;;
14797;SDS011;7490;63.708;20.368;2023-08-30T12:46:07;3.50;;;2.30;;
14797;SDS011;7490;63.708;20.368;2023-08-30T12:48:33;1.93;;;1.80;;
14797;SDS011;7490;63.708;20.368;2023-08-30T12:50:59;2.33;;;2.10;;
14797;SDS011;7490;63.708;20.368;2023-08-30T12:53:24;2.60;;;2.40;;
14797;SDS011;7490;63.708;20.368;2023-08-30T12:55:50;2.60;;;2.40;;
14797;SDS011;7490;63.708;20.368;2023-08-30T12:58:15;2.20;;;2.10;;
14797;SDS011;7490;63.708;20.368;2023-08-30T13:00:41;2.30;;;2.10;;
14797;SDS011;7490;63.708;20.368;2023-08-30T13:03:07;3.13;;;2.33;;
14797;SDS011;7490;63.708;20.368;2023-08-30T13:05:32;2.00;;;1.80;;
14797;SDS011;7490;63.708;20.368;2023-08-30T13:07:58;2.37;;;1.80;;
14797;SDS011;7490;63.708;20.368;2023-08-30T13:10:25;2.10;;;1.90;;
14797;SDS011;7490;63.708;20.368;2023-08-30T13:12:51;2.10;;;2.00;;
14797;SDS011;7490;63.708;20.368;2023-08-30T13:15:16;2.00;;;1.90;;
14797;SDS011;7490;63.708;20.368;2023-08-30T13:17:42;2.40;;;1.80;;
14797;SDS011;7490;63.708;20.368;2023-08-30T13:20:08;2.47;;;2.10;;
14797;SDS011;7490;63.708;20.368;2023-08-30T13:22:34;1.90;;;1.80;;
14797;SDS011;7490;63.708;20.368;2023-08-30T13:25:00;1.97;;;1.80;;
14797;SDS011;7490;63.708;20.368;2023-08-30T13:27:26;2.27;;;2.07;;
14797;SDS011;7490;63.708;20.368;2023-08-30T13:29:51;2.20;;;2.00;;
14797;SDS011;7490;63.708;20.368;2023-08-30T13:32:17;2.40;;;2.20;;
14797;SDS011;7490;63.708;20.368;2023-08-30T13:34:43;2.63;;;2.30;;
14797;SDS011;7490;63.708;20.368;2023-08-30T13:37:10;3.97;;;3.00;;
14797;SDS011;7490;63.708;20.368;2023-08-30T13:39:37;5.30;;;2.93;;
14797;SDS011;7490;63.708;20.368;2023-08-30T13:42:03;3.00;;;2.70;;
14797;SDS011;7490;63.708;20.368;2023-08-30T13:44:29;2.40;;;2.20;;
14797;SDS011;7490;63.708;20.368;2023-08-30T13:46:55;3.13;;;2.70;;
14797;SDS011;7490;63.708;20.368;2023-08-30T13:49:21;3.20;;;2.23;;
14797;SDS011;7490;63.708;20.368;2023-08-30T13:51:46;2.97;;;2.00;;
14797;SDS011;7490;63.708;20.368;2023-08-30T13:54:12;2.47;;;2.00;;
14797;SDS011;7490;63.708;20.368;2023-08-30T13:56:38;2.40;;;2.10;;
14797;SDS011;7490;63.708;20.368;2023-08-30T13:59:03;3.87;;;2.00;;
14797;SDS011;7490;63.708;20.368;2023-08-30T14:01:32;2.47;;;2.20;;
14797;SDS011;7490;63.708;20.368;2023-08-30T14:04:00;2.33;;;2.00;;
14797;SDS011;7490;63.708;20.368;2023-08-30T14:06:26;2.50;;;2.27;;
14797;SDS011;7490;63.708;20.368;2023-08-30T14:08:51;2.07;;;1.97;;
14797;SDS011;7490;63.708;20.368;2023-08-30T14:11:17;3.07;;;2.70;;
14797;SDS011;7490;63.708;20.368;2023-08-30T14:13:42;3.23;;;2.93;;
14797;SDS011;7490;63.708;20.368;2023-08-30T14:16:08;4.23;;;2.80;;
14797;SDS011;7490;63.708;20.368;2023-08-30T14:18:35;3.23;;;2.83;;
14797;SDS011;7490;63.708;20.368;2023-08-30T14:21:01;4.50;;;3.00;;
14797;SDS011;7490;63.708;20.368;2023-08-30T14:23:27;3.53;;;2.63;;
14797;SDS011;7490;63.708;20.368;2023-08-30T14:28:37;3.83;;;2.50;;
14797;SDS011;7490;63.708;20.368;2023-08-30T14:31:06;2.47;;;2.27;;
14797;SDS011;7490;63.708;20.368;2023-08-30T14:33:32;4.10;;;2.10;;
14797;SDS011;7490;63.708;20.368;2023-08-30T14:35:58;2.70;;;2.50;;
14797;SDS011;7490;63.708;20.368;2023-08-30T14:38:26;2.70;;;2.50;;
14797;SDS011;7490;63.708;20.368;2023-08-30T14:40:58;2.63;;;2.10;;
14797;SDS011;7490;63.708;20.368;2023-08-30T14:43:25;3.00;;;2.23;;
14797;SDS011;7490;63.708;20.368;2023-08-30T14:45:58;2.63;;;2.43;;
14797;SDS011;7490;63.708;20.368;2023-08-30T14:48:28;2.60;;;2.40;;
14797;SDS011;7490;63.708;20.368;2023-08-30T14:50:54;2.50;;;2.30;;
14797;SDS011;7490;63.708;20.368;2023-08-30T14:53:20;2.60;;;2.40;;